createdAt,value
2022-11-28T00:01:24.507Z,8.82
2022-11-28T00:03:53.422Z,8.86
2022-11-28T00:06:21.020Z,9.03
2022-11-28T00:08:48.851Z,8.97
2022-11-28T00:11:16.791Z,8.69
2022-11-28T00:13:44.601Z,8.98
2022-11-28T00:16:14.693Z,8.87
2022-11-28T00:18:42.305Z,8.65
2022-11-28T00:21:12.955Z,8.94
2022-11-28T00:23:40.607Z,8.81
2022-11-28T00:26:08.940Z,8.96
2022-11-28T00:28:36.727Z,9.13
2022-11-28T00:31:04.266Z,8.95
2022-11-28T00:33:31.774Z,9.23
2022-11-28T00:35:59.724Z,8.97
2022-11-28T00:38:28.625Z,8.68
2022-11-28T00:40:59.811Z,8.89
2022-11-28T00:43:27.295Z,8.98
2022-11-28T00:45:55.001Z,9.26
2022-11-28T00:48:22.538Z,8.62
2022-11-28T00:50:50.003Z,9.27
2022-11-28T00:53:17.569Z,9.38
2022-11-28T00:55:46.448Z,9.19
2022-11-28T00:58:13.930Z,9.19
2022-11-28T01:00:41.400Z,8.73
2022-11-28T01:03:08.894Z,9.15
2022-11-28T01:05:40.566Z,9.10
2022-11-28T01:08:08.024Z,9.12
2022-11-28T01:10:35.600Z,9.29
2022-11-28T01:13:04.749Z,9.39
2022-11-28T01:15:32.268Z,9.45
2022-11-28T01:17:59.821Z,9.45
2022-11-28T01:20:27.337Z,9.13
2022-11-28T01:22:54.837Z,9.52
2022-11-28T01:25:22.360Z,9.61
2022-11-28T01:27:49.891Z,9.43
2022-11-28T01:30:19.148Z,9.05
2022-11-28T01:32:46.637Z,9.39
2022-11-28T01:35:14.144Z,9.27
2022-11-28T01:37:41.682Z,9.49
2022-11-28T01:40:09.841Z,9.35
2022-11-28T01:42:37.336Z,9.27
2022-11-28T01:45:11.361Z,8.95
2022-11-28T01:47:40.191Z,9.31
2022-11-28T01:50:08.323Z,9.53
2022-11-28T01:52:36.757Z,9.65
2022-11-28T01:55:04.455Z,9.43
2022-11-28T01:57:31.935Z,9.75
2022-11-28T02:00:00.231Z,9.84
2022-11-28T02:02:28.424Z,9.72
2022-11-28T02:04:57.317Z,9.41
2022-11-28T02:07:24.808Z,9.90
2022-11-28T02:09:52.352Z,9.75
2022-11-28T02:12:21.491Z,9.65
2022-11-28T02:14:56.796Z,9.88
2022-11-28T02:17:26.067Z,9.75
2022-11-28T02:20:11.071Z,9.08
2022-11-28T02:22:39.294Z,9.69
2022-11-28T02:25:13.892Z,10.06
2022-11-28T02:27:47.704Z,10.05
2022-11-28T02:30:19.567Z,9.45
2022-11-28T02:32:55.403Z,9.95
2022-11-28T02:35:23.373Z,9.61
2022-11-28T02:37:53.984Z,9.62
2022-11-28T02:40:22.988Z,9.66
2022-11-28T02:42:52.587Z,9.66
2022-11-28T02:45:21.242Z,9.81
2022-11-28T02:47:49.874Z,9.96
2022-11-28T02:50:19.567Z,9.79
2022-11-28T02:52:48.303Z,9.72
2022-11-28T02:55:15.904Z,9.81
2022-11-28T02:57:44.331Z,10.16
2022-11-28T03:00:25.233Z,10.34
2022-11-28T03:02:54.119Z,10.38
2022-11-28T03:05:24.348Z,10.66
2022-11-28T03:07:56.418Z,10.28
2022-11-28T03:10:25.036Z,10.32
2022-11-28T03:12:53.094Z,10.33
2022-11-28T03:15:21.650Z,10.27
2022-11-28T03:17:49.615Z,9.98
2022-11-28T03:20:19.896Z,9.96
2022-11-28T03:22:52.480Z,9.80
2022-11-28T03:25:22.496Z,9.81
2022-11-28T03:27:50.893Z,9.87
2022-11-28T03:30:19.508Z,10.09
2022-11-28T03:32:47.040Z,10.10
2022-11-28T03:35:15.243Z,9.96
2022-11-28T03:37:43.884Z,10.33
2022-11-28T03:40:14.210Z,10.20
2022-11-28T03:42:42.792Z,10.18
2022-11-28T03:45:11.315Z,10.12
2022-11-28T03:47:39.524Z,9.67
2022-11-28T03:50:07.934Z,9.95
2022-11-28T03:52:36.735Z,9.72
2022-11-28T03:55:04.810Z,10.23
2022-11-28T03:57:35.109Z,10.56
2022-11-28T04:00:04.180Z,10.56
2022-11-28T04:02:32.408Z,10.17
2022-11-28T04:05:01.732Z,10.26
2022-11-28T04:07:30.204Z,10.01
2022-11-28T04:09:59.908Z,10.27
2022-11-28T04:12:29.613Z,10.42
2022-11-28T04:15:00.548Z,10.06
2022-11-28T04:17:28.509Z,10.34
2022-11-28T04:19:56.436Z,10.16
2022-11-28T04:22:25.052Z,10.47
2022-11-28T04:24:53.184Z,10.37
2022-11-28T04:27:23.320Z,10.24
2022-11-28T04:29:51.211Z,10.38
2022-11-28T04:32:20.323Z,10.72
2022-11-28T04:34:48.734Z,10.73
2022-11-28T04:37:16.210Z,10.73
2022-11-28T04:39:44.412Z,10.61
2022-11-28T04:42:12.292Z,10.18
2022-11-28T04:44:41.575Z,10.48
2022-11-28T04:47:09.716Z,10.39
2022-11-28T04:49:39.035Z,10.26
2022-11-28T04:52:07.698Z,10.41
2022-11-28T04:54:41.156Z,10.25
2022-11-28T04:57:12.296Z,10.42
2022-11-28T04:59:39.858Z,10.36
2022-11-28T05:02:07.374Z,10.08
2022-11-28T05:04:35.969Z,10.31
2022-11-28T05:07:05.309Z,10.46
2022-11-28T05:09:32.800Z,10.36
2022-11-28T05:12:00.314Z,10.63
2022-11-28T05:14:27.784Z,9.91
2022-11-28T05:16:55.317Z,10.16
2022-11-28T05:19:22.890Z,10.46
2022-11-28T05:21:53.151Z,10.20
2022-11-28T05:24:22.566Z,10.09
2022-11-28T05:26:50.387Z,10.45
2022-11-28T05:29:18.208Z,10.46
2022-11-28T05:31:45.977Z,10.45
2022-11-28T05:34:13.675Z,10.21
2022-11-28T05:36:41.304Z,10.08
2022-11-28T05:39:09.029Z,10.35
2022-11-28T05:41:38.033Z,10.33
2022-11-28T05:44:05.729Z,10.40
2022-11-28T05:46:33.414Z,10.32
2022-11-28T05:49:01.674Z,10.16
2022-11-28T05:51:29.419Z,10.60
2022-11-28T05:53:57.142Z,10.29
2022-11-28T05:56:24.848Z,10.20
2022-11-28T05:58:54.855Z,10.37
2022-11-28T06:01:24.084Z,10.45
2022-11-28T06:03:51.993Z,10.35
2022-11-28T06:06:21.390Z,10.33
2022-11-28T06:08:51.552Z,10.26
2022-11-28T06:11:20.064Z,10.53
2022-11-28T06:13:48.780Z,10.25
2022-11-28T06:16:19.809Z,10.27
2022-11-28T06:18:47.832Z,10.30
2022-11-28T06:21:16.460Z,9.93
2022-11-28T06:23:44.435Z,10.06
2022-11-28T06:26:13.648Z,9.99
2022-11-28T06:28:41.684Z,10.32
2022-11-28T06:31:11.676Z,10.32
2022-11-28T06:33:40.870Z,10.64
2022-11-28T06:36:09.777Z,10.31
2022-11-28T06:38:37.572Z,10.13
2022-11-28T06:41:07.218Z,10.29
2022-11-28T06:43:35.189Z,10.15
2022-11-28T06:46:03.227Z,10.00
2022-11-28T06:48:31.014Z,10.24
2022-11-28T06:51:06.693Z,10.27
2022-11-28T06:53:35.331Z,10.13
2022-11-28T06:56:06.957Z,10.26
2022-11-28T06:58:35.236Z,10.24
2022-11-28T07:01:10.577Z,10.34
2022-11-28T07:03:39.393Z,10.18
2022-11-28T07:06:09.728Z,10.21
2022-11-28T07:08:38.436Z,10.31
2022-11-28T07:11:11.311Z,9.63
2022-11-28T07:13:39.481Z,10.38
2022-11-28T07:16:08.077Z,10.48
2022-11-28T07:18:35.881Z,10.26
2022-11-28T07:21:03.596Z,10.15
2022-11-28T07:23:32.624Z,10.33
2022-11-28T07:26:00.593Z,10.17
2022-11-28T07:28:28.419Z,10.61
2022-11-28T07:31:02.415Z,9.91
2022-11-28T07:33:30.448Z,10.37
2022-11-28T07:36:01.769Z,10.26
2022-11-28T07:38:29.540Z,10.02
2022-11-28T07:41:03.834Z,10.37
2022-11-28T07:43:31.534Z,10.18
2022-11-28T07:46:01.274Z,10.54
2022-11-28T07:48:29.327Z,10.75
2022-11-28T07:50:57.121Z,10.12
2022-11-28T07:53:24.849Z,10.46
2022-11-28T07:55:52.507Z,10.33
2022-11-28T07:58:22.128Z,10.34
2022-11-28T08:00:49.775Z,10.30
2022-11-28T08:03:17.492Z,10.31
2022-11-28T08:05:49.402Z,10.38
2022-11-28T08:08:17.514Z,9.85
2022-11-28T08:10:45.292Z,10.35
2022-11-28T08:13:13.812Z,10.05
2022-11-28T08:15:42.980Z,10.11
2022-11-28T08:18:10.956Z,10.10
2022-11-28T08:20:38.647Z,9.71
2022-11-28T08:23:06.307Z,9.82
2022-11-28T08:25:34.029Z,10.26
2022-11-28T08:28:01.772Z,10.28
2022-11-28T08:30:29.514Z,10.05
2022-11-28T08:32:59.212Z,10.37
2022-11-28T08:35:26.985Z,10.45
2022-11-28T08:37:57.699Z,10.78
2022-11-28T08:40:29.213Z,10.40
2022-11-28T08:42:56.864Z,10.50
2022-11-28T08:45:24.554Z,10.62
2022-11-28T08:47:52.281Z,10.71
2022-11-28T08:50:21.415Z,10.66
2022-11-28T08:52:50.034Z,10.41
2022-11-28T08:55:19.959Z,10.25
2022-11-28T08:57:51.266Z,10.45
2022-11-28T09:00:20.216Z,10.60
2022-11-28T09:02:47.921Z,10.53
2022-11-28T09:05:15.705Z,10.70
2022-11-28T09:07:44.742Z,10.75
2022-11-28T09:10:12.708Z,10.71
2022-11-28T09:12:40.384Z,10.09
2022-11-28T09:15:09.187Z,10.52
2022-11-28T09:17:36.933Z,10.86
2022-11-28T09:20:05.522Z,11.01
2022-11-28T09:22:33.229Z,10.97
2022-11-28T09:25:02.271Z,10.70
2022-11-28T09:27:30.049Z,10.72
2022-11-28T09:29:57.782Z,10.67
2022-11-28T09:32:25.488Z,10.17
2022-11-28T09:34:53.320Z,10.52
2022-11-28T09:37:21.099Z,10.58
2022-11-28T09:40:11.506Z,10.33
2022-11-28T09:42:41.815Z,10.12
2022-11-28T09:45:13.987Z,9.86
2022-11-28T09:47:44.205Z,10.02
2022-11-28T09:50:16.670Z,10.42
2022-11-28T09:52:50.574Z,10.46
2022-11-28T09:55:22.043Z,10.44
2022-11-28T09:57:52.223Z,10.46
2022-11-28T10:00:22.755Z,10.47
2022-11-28T10:03:02.568Z,10.57
2022-11-28T10:05:35.229Z,10.67
2022-11-28T10:08:13.904Z,10.73
2022-11-28T10:10:50.382Z,10.34
2022-11-28T10:13:22.443Z,10.94
2022-11-28T10:15:57.939Z,10.64
2022-11-28T10:18:39.255Z,10.86
2022-11-28T10:21:15.799Z,10.75
2022-11-28T10:23:45.430Z,10.82
2022-11-28T10:26:18.118Z,10.40
2022-11-28T10:28:50.131Z,10.90
2022-11-28T10:31:21.715Z,10.75
2022-11-28T10:33:53.560Z,11.09
2022-11-28T10:36:24.805Z,10.74
2022-11-28T10:38:52.691Z,10.60
2022-11-28T10:41:24.850Z,10.73
2022-11-28T10:43:59.619Z,10.90
2022-11-28T10:46:44.858Z,10.70
2022-11-28T10:49:24.923Z,10.57
2022-11-28T10:51:58.916Z,10.22
2022-11-28T10:54:36.539Z,10.70
2022-11-28T10:57:08.115Z,10.97
2022-11-28T10:59:45.236Z,10.90
2022-11-28T11:02:21.694Z,10.82
2022-11-28T11:04:49.483Z,10.49
2022-11-28T11:07:23.867Z,10.91
2022-11-28T11:09:54.238Z,10.25
2022-11-28T11:12:24.811Z,10.76
2022-11-28T11:14:53.932Z,11.18
2022-11-28T11:17:35.486Z,11.25
2022-11-28T11:20:03.769Z,11.01
2022-11-28T11:22:32.555Z,11.34
2022-11-28T11:25:11.298Z,11.30
2022-11-28T11:27:40.227Z,10.90
2022-11-28T11:30:20.338Z,10.84
2022-11-28T11:32:51.444Z,10.73
2022-11-28T11:35:23.684Z,11.01
2022-11-28T11:37:51.716Z,10.77
2022-11-28T11:40:23.884Z,10.94
2022-11-28T11:42:53.659Z,11.26
2022-11-28T11:45:31.419Z,11.29
2022-11-28T11:48:01.899Z,10.69
2022-11-28T11:50:30.815Z,10.82
2022-11-28T11:53:03.275Z,10.73
2022-11-28T11:55:32.705Z,10.76
2022-11-28T11:58:05.667Z,11.34
2022-11-28T12:00:37.886Z,11.44
2022-11-28T12:03:10.678Z,11.29
2022-11-28T12:06:12.758Z,10.86
2022-11-28T12:08:39.460Z,10.98
2022-11-28T12:11:14.844Z,11.29
2022-11-28T12:13:42.605Z,11.17
2022-11-28T12:16:26.571Z,11.17
2022-11-28T12:19:00.659Z,11.23
2022-11-28T12:21:35.400Z,11.09
2022-11-28T12:24:09.691Z,11.17
2022-11-28T12:26:43.117Z,11.23
2022-11-28T12:29:44.212Z,10.72
2022-11-28T12:32:23.980Z,11.13
2022-11-28T12:35:03.433Z,11.18
2022-11-28T12:38:09.718Z,11.22
2022-11-28T12:40:36.505Z,11.70
2022-11-28T12:43:13.823Z,11.21
2022-11-28T12:45:49.712Z,11.30
2022-11-28T12:48:28.520Z,11.20
2022-11-28T12:51:02.018Z,11.41
2022-11-28T12:53:44.980Z,11.48
2022-11-28T12:56:28.786Z,11.82
2022-11-28T12:59:00.157Z,11.30
2022-11-28T13:01:39.289Z,11.20
2022-11-28T13:04:32.673Z,11.73
2022-11-28T13:07:06.819Z,11.13
2022-11-28T13:09:35.995Z,11.29
2022-11-28T13:12:15.336Z,11.28
2022-11-28T13:14:49.899Z,11.15
2022-11-28T13:17:29.548Z,11.34
2022-11-28T13:20:06.581Z,11.23
2022-11-28T13:22:40.151Z,11.22
2022-11-28T13:25:13.212Z,11.34
2022-11-28T13:27:45.773Z,11.05
2022-11-28T13:30:18.612Z,10.95
2022-11-28T13:32:48.230Z,11.36
2022-11-28T13:35:18.991Z,11.09
2022-11-28T13:40:43.917Z,11.31
2022-11-28T13:43:15.907Z,11.09
2022-11-28T13:45:45.336Z,11.16
2022-11-28T13:49:13.709Z,11.21
2022-11-28T13:51:40.504Z,10.98
2022-11-28T13:54:45.656Z,11.15
2022-11-28T13:57:22.182Z,11.04
2022-11-28T13:59:52.513Z,10.92
2022-11-28T14:02:24.286Z,11.20
2022-11-28T14:04:52.036Z,11.23
2022-11-28T14:07:28.498Z,11.28
2022-11-28T14:10:06.212Z,11.32
2022-11-28T14:12:37.404Z,11.25
2022-11-28T14:15:15.419Z,11.43
2022-11-28T14:17:52.298Z,10.92
2022-11-28T14:20:25.862Z,11.30
2022-11-28T14:23:05.224Z,11.33
2022-11-28T14:25:34.288Z,10.96
2022-11-28T14:28:03.882Z,11.06
2022-11-28T14:30:34.267Z,10.95
2022-11-28T14:33:05.286Z,10.40
2022-11-28T14:36:16.045Z,10.87
2022-11-28T14:38:46.961Z,11.00
2022-11-28T14:41:15.365Z,11.21
2022-11-28T14:43:45.975Z,11.47
2022-11-28T14:46:31.379Z,11.41
2022-11-28T14:49:16.990Z,11.15
2022-11-28T14:52:40.565Z,11.16
2022-11-28T14:55:19.783Z,10.63
2022-11-28T14:57:57.008Z,10.84
2022-11-28T15:00:27.765Z,10.87
2022-11-28T15:03:06.021Z,11.25
2022-11-28T15:05:39.743Z,11.46
2022-11-28T15:08:40.812Z,11.44
2022-11-28T15:11:19.209Z,11.47
2022-11-28T15:13:56.337Z,11.51
2022-11-28T15:16:24.878Z,11.61
2022-11-28T15:18:55.531Z,11.65
2022-11-28T15:21:23.467Z,11.47
2022-11-28T15:23:52.685Z,11.43
2022-11-28T15:26:24.105Z,11.47
2022-11-28T15:29:10.273Z,11.52
2022-11-28T15:31:38.744Z,11.44
2022-11-28T15:34:09.492Z,11.58
2022-11-28T15:36:39.220Z,11.51
2022-11-28T15:39:23.472Z,11.57
2022-11-28T15:41:52.561Z,11.65
2022-11-28T15:44:20.277Z,11.47
2022-11-28T15:46:48.053Z,11.58
2022-11-28T15:49:26.415Z,11.18
2022-11-28T15:51:55.235Z,11.42
2022-11-28T15:54:32.244Z,11.24
2022-11-28T15:57:02.126Z,11.16
2022-11-28T15:59:30.133Z,11.21
2022-11-28T16:02:01.445Z,11.34
2022-11-28T16:04:29.853Z,11.33
2022-11-28T16:06:58.902Z,11.50
2022-11-28T16:09:29.779Z,11.60
2022-11-28T16:11:57.447Z,11.30
2022-11-28T16:14:29.308Z,10.68
2022-11-28T16:16:58.089Z,10.81
2022-11-28T16:19:27.665Z,11.10
2022-11-28T16:21:57.861Z,10.53
2022-11-28T16:24:29.386Z,10.34
2022-11-28T16:27:00.816Z,10.69
2022-11-28T16:29:34.830Z,10.87
2022-11-28T16:32:10.453Z,11.05
2022-11-28T16:34:45.853Z,10.73
2022-11-28T16:37:13.864Z,11.13
2022-11-28T16:39:41.794Z,11.16
2022-11-28T16:42:15.294Z,10.88
2022-11-28T16:44:44.365Z,10.70
2022-11-28T16:47:27.300Z,11.16
2022-11-28T16:50:20.049Z,11.18
2022-11-28T16:52:50.210Z,10.84
2022-11-28T16:55:40.448Z,11.16
2022-11-28T16:58:14.008Z,11.25
2022-11-28T17:00:45.637Z,10.76
2022-11-28T17:03:38.461Z,10.99
2022-11-28T17:06:06.454Z,11.11
2022-11-28T17:08:34.133Z,10.77
2022-11-28T17:11:01.857Z,11.43
2022-11-28T17:13:30.940Z,11.21
2022-11-28T17:16:00.394Z,11.08
2022-11-28T17:18:28.195Z,11.23
2022-11-28T17:20:55.891Z,11.09
2022-11-28T17:23:26.283Z,11.30
2022-11-28T17:25:53.964Z,11.60
2022-11-28T17:28:25.229Z,11.41
2022-11-28T17:30:55.581Z,11.60
2022-11-28T17:33:24.592Z,11.47
2022-11-28T17:35:53.873Z,11.51
2022-11-28T17:38:21.558Z,11.69
2022-11-28T17:40:49.312Z,11.70
2022-11-28T17:43:18.560Z,11.66
2022-11-28T17:45:46.619Z,11.78
2022-11-28T17:48:16.063Z,11.51
2022-11-28T17:50:46.573Z,11.38
2022-11-28T17:53:16.118Z,11.23
2022-11-28T17:55:45.305Z,11.31
2022-11-28T17:58:17.271Z,11.47
2022-11-28T18:00:45.699Z,11.62
2022-11-28T18:03:13.854Z,11.56
2022-11-28T18:05:42.785Z,11.68
2022-11-28T18:08:12.174Z,11.75
2022-11-28T18:10:39.930Z,11.69
2022-11-28T18:13:08.517Z,11.68
2022-11-28T18:15:36.353Z,11.62
2022-11-28T18:18:04.779Z,11.53
2022-11-28T18:20:32.789Z,11.43
2022-11-28T18:23:01.183Z,11.13
2022-11-28T18:25:30.176Z,11.33
2022-11-28T18:27:57.912Z,11.35
2022-11-28T18:30:25.629Z,11.00
2022-11-28T18:32:53.412Z,10.77
2022-11-28T18:35:21.289Z,11.15
2022-11-28T18:37:48.993Z,11.37
2022-11-28T18:40:16.677Z,11.53
2022-11-28T18:42:45.662Z,11.59
2022-11-28T18:45:13.618Z,11.65
2022-11-28T18:47:41.296Z,11.72
2022-11-28T18:50:09.567Z,11.47
2022-11-28T18:52:37.456Z,11.30
2022-11-28T18:55:05.888Z,11.58
2022-11-28T18:57:34.663Z,11.28
2022-11-28T19:00:06.025Z,11.44
2022-11-28T19:02:33.783Z,11.12
2022-11-28T19:05:01.500Z,11.37
2022-11-28T19:07:30.200Z,11.39
2022-11-28T19:09:57.935Z,11.32
2022-11-28T19:12:25.612Z,11.58
2022-11-28T19:14:57.337Z,11.45
2022-11-28T19:17:29.388Z,11.50
2022-11-28T19:19:57.049Z,11.62
2022-11-28T19:22:24.676Z,11.35
2022-11-28T19:24:52.424Z,11.48
2022-11-28T19:27:20.153Z,11.54
2022-11-28T19:29:47.808Z,11.65
2022-11-28T19:32:16.980Z,11.62
2022-11-28T19:34:45.985Z,10.97
2022-11-28T19:37:15.193Z,11.32
2022-11-28T19:39:43.219Z,11.34
2022-11-28T19:42:11.081Z,11.09
2022-11-28T19:44:38.848Z,10.58
2022-11-28T19:47:07.065Z,10.79
2022-11-28T19:49:34.872Z,10.98
2022-11-28T19:52:03.978Z,11.19
2022-11-28T19:54:31.710Z,11.24
2022-11-28T19:56:59.442Z,11.58
2022-11-28T19:59:27.562Z,11.75
2022-11-28T20:01:55.300Z,11.81
2022-11-28T20:04:23.019Z,11.74
2022-11-28T20:06:50.676Z,11.89
2022-11-28T20:09:19.911Z,11.85
2022-11-28T20:11:47.557Z,11.93
2022-11-28T20:14:17.319Z,11.95
2022-11-28T20:16:45.417Z,11.99
2022-11-28T20:19:14.796Z,11.89
2022-11-28T20:21:42.447Z,11.49
2022-11-28T20:24:10.200Z,11.80
2022-11-28T20:26:41.310Z,11.81
2022-11-28T20:29:09.629Z,11.81
2022-11-28T20:31:38.522Z,11.95
2022-11-28T20:34:07.083Z,11.95
2022-11-28T20:36:34.949Z,12.00
2022-11-28T20:39:02.746Z,12.28
2022-11-28T20:41:30.488Z,11.92
2022-11-28T20:44:00.203Z,11.95
2022-11-28T20:46:30.266Z,12.08
2022-11-28T20:48:58.957Z,12.09
2022-11-28T20:51:28.134Z,12.28
2022-11-28T20:53:57.118Z,12.25
2022-11-28T20:56:26.276Z,12.11
2022-11-28T20:58:54.000Z,12.04
2022-11-28T21:01:25.450Z,12.12
2022-11-28T21:03:53.607Z,12.18
2022-11-28T21:06:21.522Z,12.21
2022-11-28T21:08:49.171Z,12.10
2022-11-28T21:11:43.303Z,12.11
2022-11-28T21:14:06.520Z,12.06
2022-11-28T21:16:35.811Z,12.04
2022-11-28T21:19:04.488Z,11.87
2022-11-28T21:21:33.010Z,11.20
2022-11-28T21:24:01.375Z,11.48
2022-11-28T21:26:30.572Z,11.91
2022-11-28T21:28:59.150Z,11.28
2022-11-28T21:31:28.048Z,11.22
2022-11-28T21:33:57.944Z,11.42
2022-11-28T21:36:25.957Z,11.47
2022-11-28T21:38:53.729Z,11.75
2022-11-28T21:41:21.383Z,11.81
2022-11-28T21:43:49.027Z,12.05
2022-11-28T21:46:16.882Z,12.15
2022-11-28T21:48:44.354Z,12.17
2022-11-28T21:51:17.620Z,12.10
2022-11-28T21:53:45.112Z,12.09
2022-11-28T21:56:12.759Z,12.13
2022-11-28T21:58:40.385Z,12.11
2022-11-28T22:01:08.607Z,12.01
2022-11-28T22:03:36.774Z,12.13
2022-11-28T22:06:04.766Z,12.21
2022-11-28T22:08:33.872Z,12.19
2022-11-28T22:11:04.772Z,11.87
2022-11-28T22:13:32.887Z,11.94
2022-11-28T22:16:00.442Z,11.96
2022-11-28T22:18:29.540Z,12.13
2022-11-28T22:21:01.676Z,12.25
2022-11-28T22:23:29.191Z,12.27
2022-11-28T22:25:57.999Z,12.20
2022-11-28T22:28:25.529Z,12.25
2022-11-28T22:30:53.113Z,12.30
2022-11-28T22:33:20.582Z,12.23
2022-11-28T22:35:48.113Z,12.12
2022-11-28T22:38:15.814Z,12.33
2022-11-28T22:40:43.276Z,12.33
2022-11-28T22:43:12.271Z,12.22
2022-11-28T22:45:39.752Z,12.31
2022-11-28T22:48:07.460Z,12.20
2022-11-28T22:50:39.953Z,11.90
2022-11-28T22:53:07.665Z,12.14
2022-11-28T22:55:35.813Z,11.86
2022-11-28T22:58:03.312Z,12.20
2022-11-28T23:00:32.138Z,12.27
2022-11-28T23:02:59.775Z,12.27
2022-11-28T23:05:27.424Z,12.25
2022-11-28T23:07:55.746Z,12.27
2022-11-28T23:10:23.255Z,11.35
2022-11-28T23:12:50.762Z,11.90
2022-11-28T23:15:18.278Z,12.17
2022-11-28T23:17:47.188Z,12.23
2022-11-28T23:20:15.455Z,12.20
2022-11-28T23:22:42.956Z,12.19
2022-11-28T23:25:10.643Z,12.21
2022-11-28T23:27:38.133Z,12.09
2022-11-28T23:30:06.404Z,12.19
2022-11-28T23:32:33.875Z,11.64
2022-11-28T23:35:02.798Z,11.73
2022-11-28T23:37:30.255Z,12.02
2022-11-28T23:39:57.707Z,12.14
2022-11-28T23:42:25.179Z,12.23
2022-11-28T23:44:52.618Z,12.39
2022-11-28T23:47:20.172Z,12.29
2022-11-28T23:49:47.647Z,12.14
2022-11-28T23:52:16.492Z,12.24
2022-11-28T23:54:44.101Z,12.07
2022-11-28T23:57:11.659Z,12.25
2022-11-28T23:59:39.245Z,12.32
